sensor_id;sensor_type;location;lat;lon;timestamp;temperature;humidity
13223;DHT22;6676;45.192;5.722;2023-07-28T00:02:24;23.60;99.90
13223;DHT22;6676;45.192;5.722;2023-07-28T00:05:16;23.60;99.90
13223;DHT22;6676;45.192;5.722;2023-07-28T00:08:07;23.60;99.90
13223;DHT22;6676;45.192;5.722;2023-07-28T00:10:59;23.60;99.90
13223;DHT22;6676;45.192;5.722;2023-07-28T00:13:50;23.60;99.90
13223;DHT22;6676;45.192;5.722;2023-07-28T00:16:42;23.60;99.90
13223;DHT22;6676;45.192;5.722;2023-07-28T00:19:33;23.50;99.90
13223;DHT22;6676;45.192;5.722;2023-07-28T00:22:25;23.40;99.90
13223;DHT22;6676;45.192;5.722;2023-07-28T00:25:16;23.20;99.90
13223;DHT22;6676;45.192;5.722;2023-07-28T00:28:08;23.20;99.90
13223;DHT22;6676;45.192;5.722;2023-07-28T00:30:59;23.20;99.90
13223;DHT22;6676;45.192;5.722;2023-07-28T00:33:52;23.30;99.90
13223;DHT22;6676;45.192;5.722;2023-07-28T00:36:44;23.30;99.90
13223;DHT22;6676;45.192;5.722;2023-07-28T00:39:36;23.30;99.90
13223;DHT22;6676;45.192;5.722;2023-07-28T00:42:27;23.30;99.90
13223;DHT22;6676;45.192;5.722;2023-07-28T00:45:19;23.30;99.90
13223;DHT22;6676;45.192;5.722;2023-07-28T00:48:13;23.40;99.90
13223;DHT22;6676;45.192;5.722;2023-07-28T00:51:05;23.30;99.90
13223;DHT22;6676;45.192;5.722;2023-07-28T00:53:57;23.20;99.90
13223;DHT22;6676;45.192;5.722;2023-07-28T00:56:49;23.10;99.90
13223;DHT22;6676;45.192;5.722;2023-07-28T00:59:41;23.00;99.90
13223;DHT22;6676;45.192;5.722;2023-07-28T01:02:32;23.00;99.90
13223;DHT22;6676;45.192;5.722;2023-07-28T01:05:26;22.90;99.90
13223;DHT22;6676;45.192;5.722;2023-07-28T01:08:21;22.90;99.90
13223;DHT22;6676;45.192;5.722;2023-07-28T01:11:13;22.80;99.90
13223;DHT22;6676;45.192;5.722;2023-07-28T01:14:04;22.70;99.90
13223;DHT22;6676;45.192;5.722;2023-07-28T01:16:56;22.60;99.90
13223;DHT22;6676;45.192;5.722;2023-07-28T01:19:47;22.60;99.90
13223;DHT22;6676;45.192;5.722;2023-07-28T01:22:56;22.50;99.90
13223;DHT22;6676;45.192;5.722;2023-07-28T01:25:57;22.60;99.90
13223;DHT22;6676;45.192;5.722;2023-07-28T01:28:49;22.50;99.90
13223;DHT22;6676;45.192;5.722;2023-07-28T01:31:41;22.40;99.90
13223;DHT22;6676;45.192;5.722;2023-07-28T01:34:32;22.40;99.90
13223;DHT22;6676;45.192;5.722;2023-07-28T01:37:24;22.40;99.90
13223;DHT22;6676;45.192;5.722;2023-07-28T01:40:16;22.30;99.90
13223;DHT22;6676;45.192;5.722;2023-07-28T01:43:07;22.30;99.90
13223;DHT22;6676;45.192;5.722;2023-07-28T01:45:59;22.30;99.90
13223;DHT22;6676;45.192;5.722;2023-07-28T01:48:52;22.20;99.90
13223;DHT22;6676;45.192;5.722;2023-07-28T01:51:43;22.20;99.90
13223;DHT22;6676;45.192;5.722;2023-07-28T01:54:35;22.20;99.90
13223;DHT22;6676;45.192;5.722;2023-07-28T01:57:27;22.20;99.90
13223;DHT22;6676;45.192;5.722;2023-07-28T02:00:20;22.10;99.90
13223;DHT22;6676;45.192;5.722;2023-07-28T02:03:11;22.00;99.90
13223;DHT22;6676;45.192;5.722;2023-07-28T02:06:03;22.00;99.90
13223;DHT22;6676;45.192;5.722;2023-07-28T02:08:55;22.00;99.90
13223;DHT22;6676;45.192;5.722;2023-07-28T02:11:46;22.00;99.90
13223;DHT22;6676;45.192;5.722;2023-07-28T02:14:38;21.90;99.90
13223;DHT22;6676;45.192;5.722;2023-07-28T02:17:29;21.70;99.90
13223;DHT22;6676;45.192;5.722;2023-07-28T02:20:21;21.80;99.90
13223;DHT22;6676;45.192;5.722;2023-07-28T02:23:12;21.80;99.90
13223;DHT22;6676;45.192;5.722;2023-07-28T02:26:04;21.80;99.90
13223;DHT22;6676;45.192;5.722;2023-07-28T02:28:56;21.60;99.90
13223;DHT22;6676;45.192;5.722;2023-07-28T02:31:47;21.40;99.90
13223;DHT22;6676;45.192;5.722;2023-07-28T02:34:39;21.40;99.90
13223;DHT22;6676;45.192;5.722;2023-07-28T02:37:30;21.30;99.90
13223;DHT22;6676;45.192;5.722;2023-07-28T02:40:22;21.30;99.90
13223;DHT22;6676;45.192;5.722;2023-07-28T02:43:15;21.30;99.90
13223;DHT22;6676;45.192;5.722;2023-07-28T02:46:06;21.30;99.90
13223;DHT22;6676;45.192;5.722;2023-07-28T02:48:58;21.30;99.90
13223;DHT22;6676;45.192;5.722;2023-07-28T02:51:49;21.30;99.90
13223;DHT22;6676;45.192;5.722;2023-07-28T02:54:41;21.20;99.90
13223;DHT22;6676;45.192;5.722;2023-07-28T02:57:32;21.30;99.90
13223;DHT22;6676;45.192;5.722;2023-07-28T03:00:24;21.20;99.90
13223;DHT22;6676;45.192;5.722;2023-07-28T03:03:15;21.20;99.90
13223;DHT22;6676;45.192;5.722;2023-07-28T03:06:07;21.30;99.90
13223;DHT22;6676;45.192;5.722;2023-07-28T03:09:00;21.30;99.90
13223;DHT22;6676;45.192;5.722;2023-07-28T03:11:55;21.20;99.90
13223;DHT22;6676;45.192;5.722;2023-07-28T03:14:48;21.30;99.90
13223;DHT22;6676;45.192;5.722;2023-07-28T03:17:39;21.30;99.90
13223;DHT22;6676;45.192;5.722;2023-07-28T03:20:31;21.30;99.90
13223;DHT22;6676;45.192;5.722;2023-07-28T03:23:23;21.30;99.90
13223;DHT22;6676;45.192;5.722;2023-07-28T03:26:15;21.30;99.90
13223;DHT22;6676;45.192;5.722;2023-07-28T03:29:06;21.40;99.90
13223;DHT22;6676;45.192;5.722;2023-07-28T03:31:58;21.40;99.90
13223;DHT22;6676;45.192;5.722;2023-07-28T03:34:49;21.50;99.90
13223;DHT22;6676;45.192;5.722;2023-07-28T03:37:41;21.60;99.90
13223;DHT22;6676;45.192;5.722;2023-07-28T03:40:33;21.60;99.90
13223;DHT22;6676;45.192;5.722;2023-07-28T03:43:25;21.50;99.90
13223;DHT22;6676;45.192;5.722;2023-07-28T03:46:16;21.50;99.90
13223;DHT22;6676;45.192;5.722;2023-07-28T03:49:08;21.70;99.90
13223;DHT22;6676;45.192;5.722;2023-07-28T03:52:00;21.80;99.90
13223;DHT22;6676;45.192;5.722;2023-07-28T03:54:51;21.90;99.90
13223;DHT22;6676;45.192;5.722;2023-07-28T03:57:43;21.90;99.90
13223;DHT22;6676;45.192;5.722;2023-07-28T04:00:34;22.00;99.90
13223;DHT22;6676;45.192;5.722;2023-07-28T04:03:26;22.00;99.90
13223;DHT22;6676;45.192;5.722;2023-07-28T04:06:17;22.00;99.90
13223;DHT22;6676;45.192;5.722;2023-07-28T04:09:08;22.20;99.90
13223;DHT22;6676;45.192;5.722;2023-07-28T04:12:00;22.20;99.90
13223;DHT22;6676;45.192;5.722;2023-07-28T04:14:51;22.20;99.90
13223;DHT22;6676;45.192;5.722;2023-07-28T04:17:44;22.10;99.90
13223;DHT22;6676;45.192;5.722;2023-07-28T04:20:37;22.10;99.90
13223;DHT22;6676;45.192;5.722;2023-07-28T04:23:28;22.00;99.90
13223;DHT22;6676;45.192;5.722;2023-07-28T04:26:20;22.10;99.90
13223;DHT22;6676;45.192;5.722;2023-07-28T04:29:13;21.90;99.90
13223;DHT22;6676;45.192;5.722;2023-07-28T04:32:06;21.80;99.90
13223;DHT22;6676;45.192;5.722;2023-07-28T04:34:58;21.80;99.90
13223;DHT22;6676;45.192;5.722;2023-07-28T04:37:51;21.70;99.90
13223;DHT22;6676;45.192;5.722;2023-07-28T04:41:01;21.60;99.90
13223;DHT22;6676;45.192;5.722;2023-07-28T04:43:59;21.70;99.90
13223;DHT22;6676;45.192;5.722;2023-07-28T04:46:52;21.70;99.90
13223;DHT22;6676;45.192;5.722;2023-07-28T04:49:44;21.60;99.90
13223;DHT22;6676;45.192;5.722;2023-07-28T04:52:46;21.50;99.90
13223;DHT22;6676;45.192;5.722;2023-07-28T04:55:55;21.50;99.90
13223;DHT22;6676;45.192;5.722;2023-07-28T04:58:47;21.50;99.90
13223;DHT22;6676;45.192;5.722;2023-07-28T05:01:38;21.50;99.90
13223;DHT22;6676;45.192;5.722;2023-07-28T05:04:30;21.60;99.90
13223;DHT22;6676;45.192;5.722;2023-07-28T05:07:22;21.50;99.90
13223;DHT22;6676;45.192;5.722;2023-07-28T05:10:14;21.20;99.90
13223;DHT22;6676;45.192;5.722;2023-07-28T05:13:06;21.00;99.90
13223;DHT22;6676;45.192;5.722;2023-07-28T05:15:59;21.00;99.90
13223;DHT22;6676;45.192;5.722;2023-07-28T05:19:06;20.90;99.90
13223;DHT22;6676;45.192;5.722;2023-07-28T05:22:15;20.80;99.90
13223;DHT22;6676;45.192;5.722;2023-07-28T05:25:09;20.80;99.90
13223;DHT22;6676;45.192;5.722;2023-07-28T05:28:02;20.70;99.90
13223;DHT22;6676;45.192;5.722;2023-07-28T05:31:02;20.70;99.90
13223;DHT22;6676;45.192;5.722;2023-07-28T05:33:47;20.70;99.90
13223;DHT22;6676;45.192;5.722;2023-07-28T05:36:39;20.70;99.90
13223;DHT22;6676;45.192;5.722;2023-07-28T05:39:31;20.60;99.90
13223;DHT22;6676;45.192;5.722;2023-07-28T05:42:22;20.60;99.90
13223;DHT22;6676;45.192;5.722;2023-07-28T05:47:52;20.70;99.90
13223;DHT22;6676;45.192;5.722;2023-07-28T05:50:44;20.60;99.90
13223;DHT22;6676;45.192;5.722;2023-07-28T05:53:35;20.60;99.90
13223;DHT22;6676;45.192;5.722;2023-07-28T05:56:28;20.60;99.90
13223;DHT22;6676;45.192;5.722;2023-07-28T05:59:19;20.60;99.90
13223;DHT22;6676;45.192;5.722;2023-07-28T06:02:11;20.60;99.90
13223;DHT22;6676;45.192;5.722;2023-07-28T06:05:05;20.70;99.90
13223;DHT22;6676;45.192;5.722;2023-07-28T06:07:57;20.90;99.90
13223;DHT22;6676;45.192;5.722;2023-07-28T06:10:48;20.90;99.90
13223;DHT22;6676;45.192;5.722;2023-07-28T06:13:39;20.80;99.90
13223;DHT22;6676;45.192;5.722;2023-07-28T06:16:30;20.80;99.90
13223;DHT22;6676;45.192;5.722;2023-07-28T06:19:21;20.80;99.90
13223;DHT22;6676;45.192;5.722;2023-07-28T06:22:14;21.00;99.90
13223;DHT22;6676;45.192;5.722;2023-07-28T06:25:08;21.00;99.90
13223;DHT22;6676;45.192;5.722;2023-07-28T06:27:59;20.90;99.90
13223;DHT22;6676;45.192;5.722;2023-07-28T06:30:55;20.80;99.90
13223;DHT22;6676;45.192;5.722;2023-07-28T06:33:48;20.90;99.90
13223;DHT22;6676;45.192;5.722;2023-07-28T06:36:39;20.90;99.90
13223;DHT22;6676;45.192;5.722;2023-07-28T06:39:31;21.00;99.90
13223;DHT22;6676;45.192;5.722;2023-07-28T06:42:22;21.10;99.90
13223;DHT22;6676;45.192;5.722;2023-07-28T06:45:16;21.10;99.90
13223;DHT22;6676;45.192;5.722;2023-07-28T06:48:07;21.00;99.90
13223;DHT22;6676;45.192;5.722;2023-07-28T06:50:58;21.30;99.90
13223;DHT22;6676;45.192;5.722;2023-07-28T06:53:49;21.30;99.90
13223;DHT22;6676;45.192;5.722;2023-07-28T06:56:41;21.30;99.90
13223;DHT22;6676;45.192;5.722;2023-07-28T06:59:34;21.60;99.90
13223;DHT22;6676;45.192;5.722;2023-07-28T07:02:25;21.70;99.90
13223;DHT22;6676;45.192;5.722;2023-07-28T07:05:17;21.70;99.90
13223;DHT22;6676;45.192;5.722;2023-07-28T07:08:08;21.90;99.90
13223;DHT22;6676;45.192;5.722;2023-07-28T07:11:00;22.20;99.90
13223;DHT22;6676;45.192;5.722;2023-07-28T07:13:51;22.30;99.90
13223;DHT22;6676;45.192;5.722;2023-07-28T07:16:43;22.50;99.90
13223;DHT22;6676;45.192;5.722;2023-07-28T07:19:34;22.60;99.90
13223;DHT22;6676;45.192;5.722;2023-07-28T07:22:28;22.50;99.90
13223;DHT22;6676;45.192;5.722;2023-07-28T07:25:19;22.60;99.90
13223;DHT22;6676;45.192;5.722;2023-07-28T07:28:10;22.50;99.90
13223;DHT22;6676;45.192;5.722;2023-07-28T07:31:01;22.40;99.90
13223;DHT22;6676;45.192;5.722;2023-07-28T07:33:53;22.30;99.90
13223;DHT22;6676;45.192;5.722;2023-07-28T07:36:44;22.30;99.90
13223;DHT22;6676;45.192;5.722;2023-07-28T07:39:36;22.30;99.90
13223;DHT22;6676;45.192;5.722;2023-07-28T07:42:39;22.30;99.90
13223;DHT22;6676;45.192;5.722;2023-07-28T07:45:21;22.20;99.90
13223;DHT22;6676;45.192;5.722;2023-07-28T07:48:13;22.30;99.90
13223;DHT22;6676;45.192;5.722;2023-07-28T07:51:06;22.40;99.90
13223;DHT22;6676;45.192;5.722;2023-07-28T07:53:59;22.50;99.90
13223;DHT22;6676;45.192;5.722;2023-07-28T07:56:56;22.50;99.90
13223;DHT22;6676;45.192;5.722;2023-07-28T07:59:48;22.50;99.90
13223;DHT22;6676;45.192;5.722;2023-07-28T08:02:42;22.50;99.90
13223;DHT22;6676;45.192;5.722;2023-07-28T08:05:36;22.60;99.90
13223;DHT22;6676;45.192;5.722;2023-07-28T08:08:30;22.50;99.90
13223;DHT22;6676;45.192;5.722;2023-07-28T08:11:23;22.50;99.90
13223;DHT22;6676;45.192;5.722;2023-07-28T08:17:00;22.80;99.90
13223;DHT22;6676;45.192;5.722;2023-07-28T08:19:51;22.90;99.90
13223;DHT22;6676;45.192;5.722;2023-07-28T08:22:42;23.00;99.90
13223;DHT22;6676;45.192;5.722;2023-07-28T08:25:33;23.10;99.90
13223;DHT22;6676;45.192;5.722;2023-07-28T08:28:24;23.20;99.90
13223;DHT22;6676;45.192;5.722;2023-07-28T08:31:15;23.30;99.90
13223;DHT22;6676;45.192;5.722;2023-07-28T08:34:09;23.40;99.90
13223;DHT22;6676;45.192;5.722;2023-07-28T08:37:00;23.60;99.90
13223;DHT22;6676;45.192;5.722;2023-07-28T08:39:52;23.70;99.90
13223;DHT22;6676;45.192;5.722;2023-07-28T08:42:45;23.90;99.90
13223;DHT22;6676;45.192;5.722;2023-07-28T08:45:36;24.00;99.90
13223;DHT22;6676;45.192;5.722;2023-07-28T08:48:28;24.20;99.90
13223;DHT22;6676;45.192;5.722;2023-07-28T08:51:22;24.30;99.90
13223;DHT22;6676;45.192;5.722;2023-07-28T08:54:14;24.50;99.90
13223;DHT22;6676;45.192;5.722;2023-07-28T08:57:07;24.50;99.90
13223;DHT22;6676;45.192;5.722;2023-07-28T08:59:59;24.70;99.90
13223;DHT22;6676;45.192;5.722;2023-07-28T09:02:52;24.80;99.90
13223;DHT22;6676;45.192;5.722;2023-07-28T09:05:44;24.90;99.90
13223;DHT22;6676;45.192;5.722;2023-07-28T09:08:37;25.00;99.90
13223;DHT22;6676;45.192;5.722;2023-07-28T09:11:30;25.20;99.90
13223;DHT22;6676;45.192;5.722;2023-07-28T09:14:23;25.40;99.90
13223;DHT22;6676;45.192;5.722;2023-07-28T09:17:14;25.40;99.90
13223;DHT22;6676;45.192;5.722;2023-07-28T09:20:09;25.40;99.90
13223;DHT22;6676;45.192;5.722;2023-07-28T09:23:02;25.40;99.90
13223;DHT22;6676;45.192;5.722;2023-07-28T09:25:59;25.50;99.90
13223;DHT22;6676;45.192;5.722;2023-07-28T09:28:53;25.70;99.90
13223;DHT22;6676;45.192;5.722;2023-07-28T09:31:44;25.70;99.90
13223;DHT22;6676;45.192;5.722;2023-07-28T09:34:36;25.70;99.90
13223;DHT22;6676;45.192;5.722;2023-07-28T09:37:27;25.70;99.90
13223;DHT22;6676;45.192;5.722;2023-07-28T09:40:19;25.90;99.90
13223;DHT22;6676;45.192;5.722;2023-07-28T09:43:11;26.00;99.90
13223;DHT22;6676;45.192;5.722;2023-07-28T09:46:05;26.00;99.90
13223;DHT22;6676;45.192;5.722;2023-07-28T09:48:59;26.10;99.90
13223;DHT22;6676;45.192;5.722;2023-07-28T09:51:53;26.20;99.90
13223;DHT22;6676;45.192;5.722;2023-07-28T09:54:46;26.10;99.90
13223;DHT22;6676;45.192;5.722;2023-07-28T09:57:45;26.20;99.90
13223;DHT22;6676;45.192;5.722;2023-07-28T10:00:36;26.20;99.90
13223;DHT22;6676;45.192;5.722;2023-07-28T10:03:30;26.30;99.90
13223;DHT22;6676;45.192;5.722;2023-07-28T10:06:21;26.50;99.90
13223;DHT22;6676;45.192;5.722;2023-07-28T10:09:13;26.50;99.90
13223;DHT22;6676;45.192;5.722;2023-07-28T10:12:06;26.50;99.90
13223;DHT22;6676;45.192;5.722;2023-07-28T10:15:04;26.50;99.90
13223;DHT22;6676;45.192;5.722;2023-07-28T10:17:57;26.70;99.90
13223;DHT22;6676;45.192;5.722;2023-07-28T10:20:49;27.00;99.90
13223;DHT22;6676;45.192;5.722;2023-07-28T10:23:41;27.20;99.90
13223;DHT22;6676;45.192;5.722;2023-07-28T10:26:37;27.40;99.90
13223;DHT22;6676;45.192;5.722;2023-07-28T10:29:36;27.50;99.90
13223;DHT22;6676;45.192;5.722;2023-07-28T10:32:28;27.50;99.90
13223;DHT22;6676;45.192;5.722;2023-07-28T10:35:25;27.70;99.90
13223;DHT22;6676;45.192;5.722;2023-07-28T10:38:32;27.80;99.90
13223;DHT22;6676;45.192;5.722;2023-07-28T10:41:27;28.00;99.90
13223;DHT22;6676;45.192;5.722;2023-07-28T10:44:19;28.00;99.90
13223;DHT22;6676;45.192;5.722;2023-07-28T10:47:11;28.00;99.90
13223;DHT22;6676;45.192;5.722;2023-07-28T10:50:05;28.00;99.90
13223;DHT22;6676;45.192;5.722;2023-07-28T10:52:57;28.20;99.90
13223;DHT22;6676;45.192;5.722;2023-07-28T10:55:48;28.20;99.90
13223;DHT22;6676;45.192;5.722;2023-07-28T10:58:39;28.20;99.90
13223;DHT22;6676;45.192;5.722;2023-07-28T11:01:34;28.00;99.90
13223;DHT22;6676;45.192;5.722;2023-07-28T11:04:26;28.10;99.90
13223;DHT22;6676;45.192;5.722;2023-07-28T11:07:18;28.10;99.90
13223;DHT22;6676;45.192;5.722;2023-07-28T11:10:10;28.10;99.90
13223;DHT22;6676;45.192;5.722;2023-07-28T11:13:04;28.10;99.90
13223;DHT22;6676;45.192;5.722;2023-07-28T11:15:58;28.00;99.90
13223;DHT22;6676;45.192;5.722;2023-07-28T11:18:51;28.00;99.90
13223;DHT22;6676;45.192;5.722;2023-07-28T11:21:45;28.10;99.90
13223;DHT22;6676;45.192;5.722;2023-07-28T11:24:38;28.10;99.90
13223;DHT22;6676;45.192;5.722;2023-07-28T11:27:29;28.20;99.90
13223;DHT22;6676;45.192;5.722;2023-07-28T11:30:21;28.40;99.90
13223;DHT22;6676;45.192;5.722;2023-07-28T11:33:13;28.50;99.90
13223;DHT22;6676;45.192;5.722;2023-07-28T11:36:05;28.50;99.90
13223;DHT22;6676;45.192;5.722;2023-07-28T11:38:58;28.60;99.90
13223;DHT22;6676;45.192;5.722;2023-07-28T11:41:51;28.70;99.90
13223;DHT22;6676;45.192;5.722;2023-07-28T11:44:45;28.70;99.90
13223;DHT22;6676;45.192;5.722;2023-07-28T11:47:36;28.70;99.90
13223;DHT22;6676;45.192;5.722;2023-07-28T11:50:30;28.40;99.90
13223;DHT22;6676;45.192;5.722;2023-07-28T11:53:23;28.50;99.90
13223;DHT22;6676;45.192;5.722;2023-07-28T11:56:15;28.60;99.90
13223;DHT22;6676;45.192;5.722;2023-07-28T11:59:06;28.60;99.90
13223;DHT22;6676;45.192;5.722;2023-07-28T12:01:59;28.50;99.90
13223;DHT22;6676;45.192;5.722;2023-07-28T12:04:52;28.50;99.90
13223;DHT22;6676;45.192;5.722;2023-07-28T12:07:49;28.50;99.90
13223;DHT22;6676;45.192;5.722;2023-07-28T12:10:54;28.50;99.90
13223;DHT22;6676;45.192;5.722;2023-07-28T12:13:50;28.50;99.90
13223;DHT22;6676;45.192;5.722;2023-07-28T12:16:47;28.50;99.90
13223;DHT22;6676;45.192;5.722;2023-07-28T12:19:42;28.60;99.90
13223;DHT22;6676;45.192;5.722;2023-07-28T12:22:34;28.60;99.90
13223;DHT22;6676;45.192;5.722;2023-07-28T12:28:37;28.90;99.90
13223;DHT22;6676;45.192;5.722;2023-07-28T12:31:31;29.10;99.90
13223;DHT22;6676;45.192;5.722;2023-07-28T12:34:26;29.00;99.90
13223;DHT22;6676;45.192;5.722;2023-07-28T12:37:20;28.90;99.90
13223;DHT22;6676;45.192;5.722;2023-07-28T12:43:44;29.20;99.90
13223;DHT22;6676;45.192;5.722;2023-07-28T12:46:39;29.40;99.90
13223;DHT22;6676;45.192;5.722;2023-07-28T12:49:34;29.50;99.90
13223;DHT22;6676;45.192;5.722;2023-07-28T12:56:01;29.50;99.90
13223;DHT22;6676;45.192;5.722;2023-07-28T12:58:58;29.50;99.90
13223;DHT22;6676;45.192;5.722;2023-07-28T13:01:52;29.70;99.90
13223;DHT22;6676;45.192;5.722;2023-07-28T13:05:08;30.00;99.90
13223;DHT22;6676;45.192;5.722;2023-07-28T13:11:13;30.20;99.90
13223;DHT22;6676;45.192;5.722;2023-07-28T13:14:06;30.30;99.90
13223;DHT22;6676;45.192;5.722;2023-07-28T13:20:29;30.10;99.90
13223;DHT22;6676;45.192;5.722;2023-07-28T13:30:21;30.00;99.90
13223;DHT22;6676;45.192;5.722;2023-07-28T13:33:32;30.10;99.90
13223;DHT22;6676;45.192;5.722;2023-07-28T13:36:25;30.10;99.90
13223;DHT22;6676;45.192;5.722;2023-07-28T13:39:35;30.00;99.90
13223;DHT22;6676;45.192;5.722;2023-07-28T13:42:29;30.00;99.90
13223;DHT22;6676;45.192;5.722;2023-07-28T13:45:20;29.90;99.90
13223;DHT22;6676;45.192;5.722;2023-07-28T13:48:14;30.10;99.90
13223;DHT22;6676;45.192;5.722;2023-07-28T13:51:09;30.30;99.90
13223;DHT22;6676;45.192;5.722;2023-07-28T13:54:22;30.60;99.90
13223;DHT22;6676;45.192;5.722;2023-07-28T13:57:16;30.90;99.90
13223;DHT22;6676;45.192;5.722;2023-07-28T14:00:11;31.00;99.90
13223;DHT22;6676;45.192;5.722;2023-07-28T14:03:05;31.50;99.90
13223;DHT22;6676;45.192;5.722;2023-07-28T14:05:57;31.50;99.90
13223;DHT22;6676;45.192;5.722;2023-07-28T14:09:07;31.40;99.90
13223;DHT22;6676;45.192;5.722;2023-07-28T14:12:05;31.80;99.90
13223;DHT22;6676;45.192;5.722;2023-07-28T14:15:12;32.20;99.90
13223;DHT22;6676;45.192;5.722;2023-07-28T14:18:06;32.20;99.90
13223;DHT22;6676;45.192;5.722;2023-07-28T14:21:01;32.20;99.90
13223;DHT22;6676;45.192;5.722;2023-07-28T14:23:53;32.30;99.90
13223;DHT22;6676;45.192;5.722;2023-07-28T14:26:46;31.90;99.90
13223;DHT22;6676;45.192;5.722;2023-07-28T14:29:39;31.60;99.90
13223;DHT22;6676;45.192;5.722;2023-07-28T14:32:59;31.20;99.90
13223;DHT22;6676;45.192;5.722;2023-07-28T14:35:52;30.80;99.90
13223;DHT22;6676;45.192;5.722;2023-07-28T14:38:45;30.70;99.90
13223;DHT22;6676;45.192;5.722;2023-07-28T14:41:52;30.60;99.90
13223;DHT22;6676;45.192;5.722;2023-07-28T14:44:45;30.60;99.90
13223;DHT22;6676;45.192;5.722;2023-07-28T14:47:38;30.50;99.90
13223;DHT22;6676;45.192;5.722;2023-07-28T14:50:34;30.60;99.90
13223;DHT22;6676;45.192;5.722;2023-07-28T14:53:31;30.80;99.90
13223;DHT22;6676;45.192;5.722;2023-07-28T14:56:23;30.90;99.90
13223;DHT22;6676;45.192;5.722;2023-07-28T14:59:19;31.10;99.90
13223;DHT22;6676;45.192;5.722;2023-07-28T15:02:31;31.00;99.90
13223;DHT22;6676;45.192;5.722;2023-07-28T15:05:23;30.80;99.90
13223;DHT22;6676;45.192;5.722;2023-07-28T15:08:15;30.70;99.90
13223;DHT22;6676;45.192;5.722;2023-07-28T15:11:09;30.60;99.90
13223;DHT22;6676;45.192;5.722;2023-07-28T15:14:02;30.60;99.90
13223;DHT22;6676;45.192;5.722;2023-07-28T15:16:59;30.50;99.90
13223;DHT22;6676;45.192;5.722;2023-07-28T15:19:52;30.60;99.90
13223;DHT22;6676;45.192;5.722;2023-07-28T15:22:44;31.60;99.90
13223;DHT22;6676;45.192;5.722;2023-07-28T15:25:37;33.00;99.90
13223;DHT22;6676;45.192;5.722;2023-07-28T15:28:32;33.10;99.90
13223;DHT22;6676;45.192;5.722;2023-07-28T15:31:25;33.30;99.40
13223;DHT22;6676;45.192;5.722;2023-07-28T15:34:16;33.60;98.20
13223;DHT22;6676;45.192;5.722;2023-07-28T15:37:09;33.50;98.40
13223;DHT22;6676;45.192;5.722;2023-07-28T15:40:06;33.50;97.40
13223;DHT22;6676;45.192;5.722;2023-07-28T15:42:59;33.70;97.00
13223;DHT22;6676;45.192;5.722;2023-07-28T15:45:52;33.60;96.90
13223;DHT22;6676;45.192;5.722;2023-07-28T15:48:45;33.30;96.90
13223;DHT22;6676;45.192;5.722;2023-07-28T15:51:38;34.00;96.60
13223;DHT22;6676;45.192;5.722;2023-07-28T15:54:32;34.30;95.90
13223;DHT22;6676;45.192;5.722;2023-07-28T15:57:24;34.40;95.40
13223;DHT22;6676;45.192;5.722;2023-07-28T16:00:19;34.60;94.80
13223;DHT22;6676;45.192;5.722;2023-07-28T16:03:12;34.70;94.30
13223;DHT22;6676;45.192;5.722;2023-07-28T16:06:06;34.60;94.30
13223;DHT22;6676;45.192;5.722;2023-07-28T16:08:57;34.40;94.30
13223;DHT22;6676;45.192;5.722;2023-07-28T16:11:50;34.00;94.70
13223;DHT22;6676;45.192;5.722;2023-07-28T16:14:42;34.10;95.00
13223;DHT22;6676;45.192;5.722;2023-07-28T16:17:33;33.90;94.70
13223;DHT22;6676;45.192;5.722;2023-07-28T16:20:25;33.40;95.70
13223;DHT22;6676;45.192;5.722;2023-07-28T16:23:16;33.20;96.20
13223;DHT22;6676;45.192;5.722;2023-07-28T16:26:08;33.00;96.30
13223;DHT22;6676;45.192;5.722;2023-07-28T16:28:59;33.50;96.20
13223;DHT22;6676;45.192;5.722;2023-07-28T16:31:51;34.30;95.00
13223;DHT22;6676;45.192;5.722;2023-07-28T16:34:42;33.60;95.40
13223;DHT22;6676;45.192;5.722;2023-07-28T16:37:34;33.30;95.90
13223;DHT22;6676;45.192;5.722;2023-07-28T16:40:26;33.30;96.20
13223;DHT22;6676;45.192;5.722;2023-07-28T16:43:17;33.80;95.70
13223;DHT22;6676;45.192;5.722;2023-07-28T16:46:08;33.90;95.10
13223;DHT22;6676;45.192;5.722;2023-07-28T16:49:01;33.70;95.50
13223;DHT22;6676;45.192;5.722;2023-07-28T16:51:53;34.20;94.70
13223;DHT22;6676;45.192;5.722;2023-07-28T16:54:44;34.80;94.20
13223;DHT22;6676;45.192;5.722;2023-07-28T16:57:36;35.70;92.40
13223;DHT22;6676;45.192;5.722;2023-07-28T17:00:27;34.80;92.50
13223;DHT22;6676;45.192;5.722;2023-07-28T17:03:19;33.30;93.70
13223;DHT22;6676;45.192;5.722;2023-07-28T17:06:11;32.80;94.80
13223;DHT22;6676;45.192;5.722;2023-07-28T17:09:02;33.20;94.50
13223;DHT22;6676;45.192;5.722;2023-07-28T17:11:55;33.00;94.70
13223;DHT22;6676;45.192;5.722;2023-07-28T17:14:48;33.30;94.90
13223;DHT22;6676;45.192;5.722;2023-07-28T17:17:39;33.50;94.70
13223;DHT22;6676;45.192;5.722;2023-07-28T17:20:30;34.00;94.40
13223;DHT22;6676;45.192;5.722;2023-07-28T17:23:22;34.70;93.70
13223;DHT22;6676;45.192;5.722;2023-07-28T17:26:13;34.10;93.40
13223;DHT22;6676;45.192;5.722;2023-07-28T17:29:05;32.70;94.80
13223;DHT22;6676;45.192;5.722;2023-07-28T17:31:55;32.00;95.80
13223;DHT22;6676;45.192;5.722;2023-07-28T17:34:47;31.70;96.40
13223;DHT22;6676;45.192;5.722;2023-07-28T17:37:38;31.50;97.20
13223;DHT22;6676;45.192;5.722;2023-07-28T17:40:29;31.60;97.60
13223;DHT22;6676;45.192;5.722;2023-07-28T17:43:20;31.70;98.00
13223;DHT22;6676;45.192;5.722;2023-07-28T17:46:12;31.70;97.90
13223;DHT22;6676;45.192;5.722;2023-07-28T17:49:03;31.70;98.40
13223;DHT22;6676;45.192;5.722;2023-07-28T17:51:54;31.90;98.50
13223;DHT22;6676;45.192;5.722;2023-07-28T17:54:45;31.90;98.50
13223;DHT22;6676;45.192;5.722;2023-07-28T17:57:36;32.10;98.60
13223;DHT22;6676;45.192;5.722;2023-07-28T18:00:28;32.10;98.20
13223;DHT22;6676;45.192;5.722;2023-07-28T18:03:21;32.00;98.50
13223;DHT22;6676;45.192;5.722;2023-07-28T18:06:16;31.90;98.80
13223;DHT22;6676;45.192;5.722;2023-07-28T18:09:07;31.80;99.20
13223;DHT22;6676;45.192;5.722;2023-07-28T18:11:59;32.00;99.10
13223;DHT22;6676;45.192;5.722;2023-07-28T18:14:51;32.00;99.10
13223;DHT22;6676;45.192;5.722;2023-07-28T18:17:42;31.70;99.00
13223;DHT22;6676;45.192;5.722;2023-07-28T18:20:34;30.90;99.70
13223;DHT22;6676;45.192;5.722;2023-07-28T18:23:26;30.60;99.90
13223;DHT22;6676;45.192;5.722;2023-07-28T18:26:17;30.30;99.90
13223;DHT22;6676;45.192;5.722;2023-07-28T18:29:08;30.10;99.90
13223;DHT22;6676;45.192;5.722;2023-07-28T18:32:00;29.80;99.90
13223;DHT22;6676;45.192;5.722;2023-07-28T18:34:51;29.60;99.90
13223;DHT22;6676;45.192;5.722;2023-07-28T18:37:43;29.40;99.90
13223;DHT22;6676;45.192;5.722;2023-07-28T18:40:34;29.20;99.90
13223;DHT22;6676;45.192;5.722;2023-07-28T18:43:26;29.00;99.90
13223;DHT22;6676;45.192;5.722;2023-07-28T18:46:18;28.70;99.90
13223;DHT22;6676;45.192;5.722;2023-07-28T18:49:09;28.60;99.90
13223;DHT22;6676;45.192;5.722;2023-07-28T18:52:01;28.50;99.90
13223;DHT22;6676;45.192;5.722;2023-07-28T18:54:53;28.30;99.90
13223;DHT22;6676;45.192;5.722;2023-07-28T18:57:45;28.20;99.90
13223;DHT22;6676;45.192;5.722;2023-07-28T19:00:36;28.00;99.90